.
WxDataArchive / Data Records for 2015-06-21
2015-06-20 June 2015 2015-06-22

Data Records for Sunday, 21 June 2015

Time	Temp	Chill	HIndex	Humid	Dewpt	 Wind 	HiWind	WindDir	Rain 	Barom
-----	----	-----	------	-----	-----	------	------	-------	-----	-----
00:00	72.1	72.1	72.1	88	68.3	0	0	---	0.00	29.801 
00:05	72.1	72.1	72.1	88	68.3	0	1	292	0.00	29.801 
00:10	72.1	72.1	72.1	88	68.3	0	0	---	0.00	29.801 
00:15	72.0	72.0	72.0	88	68.2	0	1	292	0.00	29.804 
00:20	72.0	72.0	72.0	88	68.2	0	2	292	0.00	29.804 
00:25	72.1	72.1	72.1	88	68.3	1	3	292	0.00	29.804 
00:30	72.1	72.1	72.1	88	68.3	0	2	292	0.00	29.825 
00:35	72.1	72.1	72.1	88	68.3	0	1	292	0.00	29.825 
00:40	72.1	72.1	72.1	88	68.3	0	1	292	0.00	29.825 
00:45	72.0	72.0	72.0	88	68.2	0	0	---	0.00	29.808 
00:50	71.8	71.8	71.8	88	68.0	0	1	292	0.00	29.808 
00:55	71.8	71.8	71.8	88	68.0	0	1	292	0.00	29.808 
01:00	71.8	71.8	71.8	88	68.0	0	1	292	0.00	29.806 
01:05	71.6	71.6	71.6	88	67.8	0	0	---	0.00	29.806 
01:10	71.6	71.6	71.6	88	67.8	0	1	292	0.00	29.806 
01:15	71.6	71.6	71.6	89	68.2	0	1	292	0.00	29.804 
01:20	71.6	71.6	71.6	89	68.2	0	1	292	0.00	29.804 
01:25	71.6	71.6	71.6	89	68.2	0	1	292	0.00	29.804 
01:30	71.6	71.6	71.6	89	68.2	0	1	292	0.00	29.803 
01:35	71.6	71.6	71.6	89	68.2	0	3	90	0.00	29.803 
01:40	71.8	71.8	71.8	89	68.4	0	2	90	0.00	29.803 
01:45	71.8	71.8	71.8	89	68.4	1	6	270	0.00	29.789 
01:50	72.0	72.0	72.0	89	68.6	0	2	270	0.00	29.789 
01:55	72.0	72.0	72.0	89	68.6	1	3	270	0.00	29.789 
02:00	72.1	72.1	72.1	88	68.3	1	3	270	0.00	29.788 
02:05	72.3	72.3	72.3	88	68.5	1	4	270	0.00	29.788 
02:10	72.3	72.3	72.3	88	68.5	1	3	270	0.00	29.788 
02:15	72.3	72.3	72.3	88	68.5	1	4	270	0.00	29.784 
02:20	72.3	72.3	72.3	88	68.5	1	3	270	0.00	29.784 
02:25	72.3	72.3	72.3	88	68.5	1	6	270	0.00	29.784 
02:30	72.1	72.1	72.1	88	68.3	1	4	270	0.00	29.773 
02:35	72.0	72.0	72.0	88	68.2	1	2	292	0.00	29.773 
02:40	72.0	72.0	72.0	88	68.2	0	3	292	0.01	29.773 
02:45	71.8	71.8	71.8	89	68.4	1	5	292	0.00	29.789 
02:50	71.8	71.8	71.8	89	68.4	1	4	292	0.00	29.789 
02:55	71.8	71.8	71.8	89	68.4	2	6	270	0.00	29.789 
03:00	71.6	71.6	71.6	89	68.2	1	5	270	0.00	29.789 
03:05	71.5	71.5	71.5	90	68.4	2	7	270	0.01	29.789 
03:10	70.9	70.9	70.9	89	67.5	2	6	292	0.00	29.789 
03:15	70.6	70.6	70.6	89	67.2	1	7	315	0.01	29.796 
03:20	70.3	70.3	70.3	89	66.9	2	5	270	0.01	29.796 
03:25	69.9	69.9	69.9	90	66.8	2	6	270	0.00	29.796 
03:30	69.8	69.8	69.8	90	66.7	1	5	270	0.01	29.807 
03:35	69.6	69.6	69.6	91	66.8	2	6	270	0.01	29.807 
03:40	69.4	69.4	69.4	91	66.7	1	3	270	0.00	29.807 
03:45	69.3	69.3	69.3	91	66.6	1	5	292	0.01	29.812 
03:50	69.1	69.1	69.1	92	66.7	1	5	292	0.01	29.812 
03:55	68.9	68.9	68.9	92	66.5	1	4	292	0.01	29.812 
04:00	68.6	68.6	68.6	92	66.2	1	5	292	0.00	29.801 
04:05	68.4	68.4	68.4	92	66.0	0	4	292	0.00	29.801 
04:10	68.3	68.3	68.3	92	65.9	0	3	292	0.00	29.801 
04:15	68.1	68.1	68.1	92	65.7	0	0	---	0.00	29.776 
04:20	67.9	67.9	67.9	92	65.5	0	0	---	0.00	29.776 
04:25	67.8	67.8	67.8	92	65.4	0	0	---	0.00	29.776 
04:30	67.6	67.6	67.6	92	65.2	0	0	---	0.00	29.743 
04:35	67.6	67.6	67.6	92	65.2	0	0	---	0.00	29.743 
04:40	67.6	67.6	67.6	93	65.5	0	1	292	0.00	29.743 
04:45	67.6	67.6	67.6	93	65.5	0	2	292	0.00	29.713 
04:50	67.4	67.4	67.4	93	65.3	0	0	---	0.00	29.713 
04:55	67.4	67.4	67.4	93	65.3	0	0	---	0.00	29.713 
05:00	67.4	67.4	67.4	93	65.3	0	2	292	0.00	29.715 
05:05	67.4	67.4	67.4	93	65.3	0	2	292	0.01	29.715 
05:10	67.6	67.6	67.6	93	65.5	1	3	292	0.00	29.715 
05:15	67.6	67.6	67.6	94	65.8	0	2	292	0.00	29.754 
05:20	67.4	67.4	67.4	94	65.6	0	2	292	0.00	29.754 
05:25	67.4	67.4	67.4	94	65.6	1	3	292	0.00	29.754 
05:30	67.4	67.4	67.4	94	65.6	0	3	292	0.00	29.778 
05:35	67.4	67.4	67.4	94	65.6	1	4	292	0.00	29.778 
05:40	67.4	67.4	67.4	94	65.6	0	1	292	0.00	29.778 
05:45	67.3	67.3	67.3	94	65.5	0	1	292	0.00	29.790 
05:50	67.3	67.3	67.3	94	65.5	0	1	292	0.00	29.790 
05:55	67.3	67.3	67.3	94	65.5	0	1	292	0.00	29.790 
06:00	67.1	67.1	67.1	94	65.3	0	1	292	0.00	29.806 
06:05	67.1	67.1	67.1	94	65.3	0	1	292	0.00	29.806 
06:10	66.9	66.9	66.9	94	65.1	0	0	---	0.00	29.806 
06:15	66.8	66.8	66.8	94	65.0	0	0	---	0.00	29.795 
06:20	66.8	66.8	66.8	94	65.0	0	0	---	0.00	29.795 
06:25	66.6	66.6	66.6	94	64.8	0	0	---	0.00	29.795 
06:30	66.4	66.4	66.4	94	64.6	0	0	---	0.00	29.794 
06:35	66.4	66.4	66.4	94	64.6	0	0	---	0.00	29.794 
06:40	66.3	66.3	66.3	94	64.5	0	0	---	0.00	29.794 
06:45	66.3	66.3	66.3	94	64.5	0	0	---	0.00	29.791 
06:50	66.3	66.3	66.3	94	64.5	0	0	---	0.00	29.791 
06:55	66.4	66.4	66.4	94	64.6	0	0	---	0.00	29.791 
07:00	66.4	66.4	66.4	94	64.6	0	0	---	0.00	29.785 
07:05	66.6	66.6	66.6	95	65.1	0	0	---	0.00	29.785 
07:10	66.8	66.8	66.8	95	65.3	0	0	---	0.00	29.785 
07:15	66.8	66.8	66.8	95	65.3	0	0	---	0.00	29.798 
07:20	66.9	66.9	66.9	95	65.4	0	0	---	0.00	29.798 
07:25	66.9	66.9	66.9	95	65.4	0	0	---	0.00	29.798 
07:30	66.9	66.9	66.9	95	65.4	0	0	---	0.00	29.811 
07:35	66.9	66.9	66.9	95	65.4	0	0	---	0.00	29.811 
07:40	67.3	67.3	67.3	95	65.8	0	0	---	0.00	29.811 
07:45	67.6	67.6	67.6	95	66.1	0	0	---	0.00	29.817 
07:50	68.1	68.1	68.1	95	66.6	0	0	---	0.00	29.817 
07:55	68.3	68.3	68.3	94	66.5	0	0	---	0.00	29.817 
08:00	68.3	68.3	68.3	94	66.5	0	0	---	0.00	29.818 
08:05	68.4	68.4	68.4	94	66.6	0	0	---	0.00	29.818 
08:10	68.8	68.8	68.8	94	67.0	0	1	248	0.00	29.818 
08:15	69.1	69.1	69.1	94	67.3	0	2	248	0.00	29.828 
08:20	69.1	69.1	69.1	93	67.0	0	2	248	0.00	29.828 
08:25	69.3	69.3	69.3	93	67.2	0	2	248	0.00	29.828 
08:30	69.4	69.4	69.4	92	67.0	0	2	248	0.00	29.832 
08:35	69.8	69.8	69.8	91	67.0	0	2	248	0.00	29.832 
08:40	69.9	69.9	69.9	90	66.8	1	3	248	0.00	29.832 
08:45	70.1	70.1	70.1	89	66.7	0	2	248	0.00	29.835 
08:50	70.6	70.6	70.6	88	66.9	0	1	248	0.00	29.835 
08:55	70.8	70.8	70.8	87	66.7	1	3	248	0.00	29.835 
09:00	70.9	70.9	70.9	84	65.8	1	4	248	0.00	29.839 
09:05	71.5	71.5	71.5	84	66.4	1	3	248	0.00	29.839 
09:10	72.0	72.0	72.0	83	66.5	0	2	248	0.00	29.839 
09:15	72.1	72.1	72.1	81	65.9	1	3	248	0.00	29.839 
09:20	72.3	72.3	72.3	79	65.4	1	4	248	0.00	29.839 
09:25	72.8	72.8	72.8	79	65.9	0	3	248	0.00	29.839 
09:30	73.0	73.0	73.0	77	65.3	0	3	248	0.00	29.837 
09:35	73.2	73.2	73.2	75	64.8	1	3	248	0.00	29.837 
09:40	73.5	73.5	73.5	75	65.1	1	2	248	0.00	29.837 
09:45	73.9	73.9	73.9	76	65.8	0	2	248	0.00	29.839 
09:50	73.9	73.9	73.9	76	65.8	1	2	248	0.00	29.839 
09:55	74.2	74.2	74.2	75	65.8	0	3	248	0.00	29.839 
10:00	74.2	74.2	74.2	74	65.4	1	4	248	0.00	29.844 
10:05	74.0	74.0	74.0	73	64.8	1	3	248	0.00	29.844 
10:10	73.9	73.9	73.9	74	65.1	0	2	248	0.00	29.844 
10:15	74.0	74.0	74.0	76	65.9	0	2	248	0.00	29.854 
10:20	74.4	74.4	74.4	76	66.3	0	2	248	0.00	29.854 
10:25	74.6	74.6	74.6	75	66.1	0	3	270	0.00	29.854 
10:30	74.2	74.2	74.2	74	65.4	0	2	270	0.00	29.853 
10:35	73.9	73.9	73.9	75	65.5	0	2	270	0.00	29.853 
10:40	73.5	73.5	73.5	75	65.1	0	2	270	0.00	29.853 
10:45	73.2	73.2	73.2	76	65.2	0	3	270	0.00	29.861 
10:50	72.8	72.8	72.8	76	64.8	1	3	225	0.00	29.861 
10:55	72.7	72.7	72.7	77	65.1	1	4	248	0.00	29.861 
11:00	72.5	72.5	72.5	77	64.9	1	3	248	0.00	29.859 
11:05	72.3	72.3	72.3	77	64.7	1	4	248	0.00	29.859 
11:10	72.3	72.3	72.3	77	64.7	1	3	248	0.00	29.859 
11:15	72.5	72.5	72.5	79	65.6	1	3	248	0.00	29.868 
11:20	72.5	72.5	72.5	78	65.2	0	3	248	0.00	29.868 
11:25	72.7	72.7	72.7	78	65.4	1	3	248	0.00	29.868 
11:30	73.2	73.2	73.2	78	65.9	0	3	248	0.00	29.859 
11:35	73.5	73.5	73.5	77	65.8	0	3	248	0.00	29.859 
11:40	74.0	74.0	74.0	77	66.3	1	4	248	0.00	29.859 
11:45	74.2	74.2	74.2	75	65.8	1	4	248	0.00	29.856 
11:50	74.0	74.0	74.0	74	65.2	2	5	248	0.00	29.856 
11:55	74.6	74.6	74.6	75	66.1	2	4	270	0.00	29.856 
12:00	75.3	75.3	76.5	75	66.8	2	4	270	0.00	29.860 
12:05	75.8	75.8	77.3	73	66.5	1	4	270	0.00	29.860 
12:10	76.0	76.0	77.5	73	66.7	2	3	270	0.00	29.860 
12:15	75.8	75.8	77.4	71	65.7	3	5	270	0.00	29.867 
12:20	76.0	76.0	77.5	73	66.7	1	4	270	0.00	29.867 
12:25	76.0	76.0	77.6	71	65.9	3	5	270	0.00	29.867 
12:30	76.0	76.0	77.6	71	65.9	2	4	270	0.00	29.869 
12:35	76.0	76.0	77.5	72	66.3	2	7	292	0.00	29.869 
12:40	76.0	76.0	77.5	72	66.3	2	5	292	0.00	29.869 
12:45	75.8	75.8	77.3	72	66.1	2	4	270	0.00	29.877 
12:50	76.0	76.0	77.5	73	66.7	1	3	270	0.00	29.877 
12:55	75.6	75.6	77.1	72	65.9	3	6	270	0.00	29.877 
13:00	75.4	75.4	76.8	73	66.1	3	5	292	0.00	29.884 
13:05	75.4	75.4	76.8	73	66.1	3	6	270	0.00	29.884 
13:10	75.6	75.6	77.0	73	66.3	2	4	292	0.00	29.884 
13:15	76.0	76.0	77.5	73	66.7	1	4	292	0.00	29.887 
13:20	76.0	76.0	77.5	73	66.7	2	4	292	0.00	29.887 
13:25	75.6	75.6	77.0	73	66.3	3	5	292	0.00	29.887 
13:30	75.3	75.3	76.7	73	66.0	3	6	270	0.00	29.886 
13:35	75.6	75.6	77.0	74	66.7	3	5	292	0.00	29.886 
13:40	76.0	76.0	77.4	74	67.1	3	5	292	0.00	29.886 
13:45	76.7	76.7	78.3	75	68.2	2	4	292	0.00	29.884 
13:50	77.0	77.0	78.7	72	67.3	2	4	292	0.00	29.884 
13:55	77.2	77.2	79.0	73	67.9	2	5	315	0.00	29.884 
14:00	77.0	77.0	78.8	71	66.9	2	7	292	0.00	29.885 
14:05	77.0	77.0	78.7	72	67.3	2	5	270	0.00	29.885 
14:10	77.2	77.2	79.0	72	67.5	2	5	270	0.00	29.885 
14:15	77.2	77.2	79.0	71	67.0	2	5	292	0.00	29.886 
14:20	76.8	76.8	78.5	72	67.1	2	4	292	0.00	29.886 
14:25	77.2	77.2	79.0	72	67.5	2	4	292	0.00	29.886 
14:30	77.4	77.4	79.3	70	66.8	2	5	292	0.00	29.885 
14:35	77.4	77.4	79.3	70	66.8	2	4	292	0.00	29.885 
14:40	77.7	77.7	79.6	70	67.1	1	4	292	0.00	29.885 
14:45	78.1	78.1	80.2	70	67.5	2	6	292	0.00	29.882 
14:50	78.6	78.6	80.9	71	68.4	2	4	315	0.00	29.882 
14:55	79.0	79.0	81.2	67	67.1	1	4	292	0.00	29.882 
15:00	79.4	79.4	81.8	68	67.9	1	3	292	0.00	29.882 
15:05	79.6	79.6	82.1	68	68.1	1	2	292	0.00	29.882 
15:10	79.8	79.8	82.3	67	67.8	2	5	292	0.00	29.882 
15:15	79.9	79.9	82.2	65	67.1	2	5	292	0.00	29.885 
15:20	79.6	79.6	82.0	67	67.7	1	5	292	0.00	29.885 
15:25	79.9	79.9	82.3	66	67.5	1	4	292	0.00	29.885 
15:30	80.5	80.5	83.2	66	68.1	1	4	292	0.00	29.883 
15:35	80.9	80.9	83.5	64	67.6	2	5	292	0.00	29.883 
15:40	81.4	81.4	84.1	63	67.6	1	3	292	0.00	29.883 
15:45	81.1	81.1	83.5	62	66.8	2	4	315	0.00	29.883 
15:50	81.1	81.1	83.6	63	67.3	2	5	292	0.00	29.883 
15:55	81.1	81.1	83.3	61	66.4	2	5	315	0.00	29.883 
16:00	81.2	81.2	83.3	60	66.0	3	7	270	0.00	29.885 
16:05	81.2	81.2	83.2	59	65.5	2	7	292	0.00	29.885 
16:10	81.4	81.4	83.4	59	65.7	1	4	292	0.00	29.885 
16:15	81.2	81.2	82.9	57	64.5	2	4	292	0.00	29.887 
16:20	81.2	81.2	83.2	59	65.5	1	5	315	0.00	29.887 
16:25	81.2	81.2	82.6	55	63.5	2	5	315	0.00	29.887 
16:30	81.2	81.2	82.5	54	62.9	2	4	270	0.00	29.886 
16:35	81.4	81.4	83.1	57	64.7	2	4	270	0.00	29.886 
16:40	81.8	81.8	83.6	57	65.0	2	4	315	0.00	29.886 
16:45	82.4	82.4	84.4	57	65.6	1	4	270	0.00	29.889 
16:50	82.8	82.8	84.8	56	65.5	2	3	270	0.00	29.889 
16:55	83.0	83.0	84.9	55	65.1	1	4	270	0.00	29.889 
17:00	83.0	83.0	84.7	54	64.6	2	4	270	0.00	29.886 
17:05	83.2	83.2	84.5	52	63.7	1	4	270	0.00	29.886 
17:10	83.0	83.0	84.5	53	64.1	1	4	270	0.00	29.886 
17:15	82.8	82.8	84.0	52	63.3	2	5	270	0.00	29.881 
17:20	83.0	83.0	84.5	53	64.1	1	4	292	0.00	29.881 
17:25	83.0	83.0	84.3	52	63.5	2	4	292	0.00	29.881 
17:30	82.8	82.8	84.2	53	63.9	2	4	292	0.00	29.888 
17:35	83.0	83.0	84.7	54	64.6	1	4	292	0.00	29.888 
17:40	83.0	83.0	84.3	52	63.5	3	6	270	0.00	29.888 
17:45	82.8	82.8	84.0	52	63.3	2	5	270	0.00	29.891 
17:50	82.4	82.4	83.7	53	63.5	2	5	270	0.00	29.891 
17:55	82.4	82.4	83.7	53	63.5	1	3	270	0.00	29.891 
18:00	82.4	82.4	83.2	50	61.9	2	5	270	0.00	29.888 
18:05	82.4	82.4	83.5	52	63.0	2	5	270	0.00	29.888 
18:10	82.4	82.4	84.1	55	64.6	2	6	292	0.00	29.888 
18:15	82.4	82.4	83.9	54	64.1	1	4	292	0.00	29.889 
18:20	82.6	82.6	84.0	53	63.7	2	5	315	0.00	29.889 
18:25	82.4	82.4	83.2	50	61.9	3	5	292	0.00	29.889 
18:30	82.2	82.2	83.5	53	63.3	2	6	292	0.00	29.892 
18:35	82.0	82.0	83.4	54	63.7	2	4	292	0.00	29.892 
18:40	82.0	82.0	83.1	52	62.6	2	6	270	0.00	29.892 
18:45	82.0	82.0	82.9	51	62.1	2	6	270	0.00	29.898 
18:50	82.0	82.0	82.8	50	61.5	1	4	270	0.00	29.898 
18:55	82.0	82.0	82.9	51	62.1	2	4	292	0.00	29.898 
19:00	82.0	82.0	82.8	50	61.5	2	5	292	0.00	29.901 
19:05	82.0	82.0	82.8	50	61.5	2	5	292	0.00	29.901 
19:10	81.8	81.8	82.6	50	61.3	2	5	292	0.00	29.901 
19:15	81.6	81.6	82.6	52	62.2	2	4	292	0.00	29.901 
19:20	81.4	81.4	82.5	53	62.6	1	3	292	0.00	29.901 
19:25	81.4	81.4	82.5	53	62.6	1	3	292	0.00	29.901 
19:30	81.6	81.6	82.9	54	63.3	1	4	292	0.00	29.899 
19:35	81.6	81.6	82.6	52	62.2	1	4	292	0.00	29.899 
19:40	81.4	81.4	82.4	52	62.1	1	4	292	0.00	29.899 
19:45	81.1	81.1	82.0	51	61.2	2	5	292	0.00	29.902 
19:50	80.7	80.7	81.8	53	62.0	1	3	292	0.00	29.902 
19:55	80.7	80.7	81.7	52	61.4	1	3	292	0.00	29.902 
20:00	80.7	80.7	81.6	51	60.9	1	4	292	0.00	29.910 
20:05	80.7	80.7	81.7	52	61.4	1	2	292	0.00	29.910 
20:10	80.5	80.5	81.5	52	61.2	1	2	292	0.00	29.910 
20:15	80.3	80.3	81.4	53	61.6	0	1	292	0.00	29.911 
20:20	79.9	79.9	81.0	53	61.2	0	1	292	0.00	29.911 
20:25	79.6	79.6	80.8	54	61.5	0	1	292	0.00	29.911 
20:30	79.4	79.4	80.6	54	61.3	0	1	292	0.00	29.914 
20:35	79.0	79.0	80.3	55	61.4	0	0	---	0.00	29.914 
20:40	78.8	78.8	80.2	56	61.8	0	0	---	0.00	29.914 
20:45	78.6	78.6	80.1	57	62.1	0	0	---	0.00	29.916 
20:50	78.3	78.3	79.8	57	61.8	0	0	---	0.00	29.916 
20:55	78.1	78.1	79.6	57	61.6	0	0	---	0.00	29.916 
21:00	77.9	77.9	79.5	58	61.9	0	0	---	0.00	29.919 
21:05	77.7	77.7	79.4	59	62.2	0	0	---	0.00	29.919 
21:10	77.6	77.6	79.3	59	62.1	0	0	---	0.00	29.919 
21:15	77.4	77.4	79.1	59	61.9	0	0	---	0.00	29.915 
21:20	77.4	77.4	79.1	60	62.4	0	0	---	0.00	29.915 
21:25	77.2	77.2	79.0	62	63.2	0	0	---	0.00	29.915 
21:30	76.8	76.8	78.6	62	62.8	0	0	---	0.00	29.917 
21:35	76.5	76.5	78.3	63	62.9	0	0	---	0.00	29.917 
21:40	76.0	76.0	77.9	63	62.5	0	0	---	0.00	29.917 
21:45	75.6	75.6	77.6	64	62.5	0	0	---	0.00	29.914 
21:50	75.3	75.3	77.3	65	62.7	0	0	---	0.00	29.914 
21:55	74.9	74.9	74.9	66	62.8	0	0	---	0.00	29.914 
22:00	74.6	74.6	74.6	67	62.9	0	0	---	0.00	29.914 
22:05	74.4	74.4	74.4	68	63.1	0	0	---	0.00	29.914 
22:10	74.0	74.0	74.0	70	63.6	0	0	---	0.00	29.914 
22:15	73.7	73.7	73.7	71	63.7	0	0	---	0.00	29.917 
22:20	73.3	73.3	73.3	72	63.7	0	0	---	0.00	29.917 
22:25	73.2	73.2	73.2	73	64.0	0	0	---	0.00	29.917 
22:30	72.8	72.8	72.8	73	63.6	0	0	---	0.00	29.923 
22:35	72.7	72.7	72.7	74	63.9	0	0	---	0.00	29.923 
22:40	72.3	72.3	72.3	75	63.9	0	0	---	0.00	29.923 
22:45	72.1	72.1	72.1	75	63.7	0	0	---	0.00	29.929 
22:50	71.8	71.8	71.8	76	63.8	0	0	---	0.00	29.929 
22:55	71.6	71.6	71.6	77	64.0	0	0	---	0.00	29.929 
23:00	71.6	71.6	71.6	77	64.0	0	0	---	0.00	29.934 
23:05	71.5	71.5	71.5	78	64.3	0	0	---	0.00	29.934 
23:10	71.3	71.3	71.3	79	64.4	0	0	---	0.00	29.934 
23:15	71.1	71.1	71.1	79	64.2	0	0	---	0.00	29.932 
23:20	70.9	70.9	70.9	80	64.4	0	0	---	0.00	29.932 
23:25	70.8	70.8	70.8	80	64.3	0	0	---	0.00	29.932 
23:30	70.8	70.8	70.8	81	64.7	0	0	---	0.00	29.933 
23:35	70.6	70.6	70.6	81	64.5	0	0	---	0.00	29.933 
23:40	70.4	70.4	70.4	82	64.6	0	0	---	0.00	29.933 
23:45	70.4	70.4	70.4	82	64.6	0	0	---	0.00	29.932 
23:50	70.3	70.3	70.3	82	64.5	0	0	---	0.00	29.932 
23:55	70.3	70.3	70.3	82	64.5	0	0	---	0.00	29.932 

CoCoRaHS
IN-AL-39
A2 Web Hosting
Creative Commons License
GoDaddy
search engine by freefind advanced

loaded 2018-11-18 12:11:55 • last modified 2010-11-18 10:43:29
Privacy PolicyDisclaimer
• wx.awcolley.com is powered by PmWiki v.2002016 •
• all content (unless otherwise noted) © 2018 A W Colley